createdAt,value
2018-04-10T00:00:20.618Z,43.90
2018-04-10T00:02:50.586Z,45.08
2018-04-10T00:05:20.110Z,43.78
2018-04-10T00:07:50.412Z,42.65
2018-04-10T00:10:20.383Z,43.55
2018-04-10T00:12:49.934Z,42.65
2018-04-10T00:15:19.303Z,42.38
2018-04-10T00:17:49.362Z,42.40
2018-04-10T00:20:19.483Z,42.80
2018-04-10T00:22:49.426Z,42.72
2018-04-10T00:25:19.619Z,45.33
2018-04-10T00:27:48.860Z,40.83
2018-04-10T00:30:18.422Z,42.45
2018-04-10T00:32:48.427Z,39.22
2018-04-10T00:35:17.846Z,38.50
2018-04-10T00:37:47.894Z,41.03
2018-04-10T00:40:17.472Z,39.28
2018-04-10T00:42:46.710Z,40.67
2018-04-10T00:45:16.076Z,41.67
2018-04-10T00:47:45.313Z,37.85
2018-04-10T00:50:14.670Z,38.58
2018-04-10T00:52:45.178Z,38.80
2018-04-10T00:55:15.530Z,39.55
2018-04-10T00:57:45.554Z,36.75
2018-04-10T01:00:15.975Z,39.58
2018-04-10T01:02:45.486Z,38.20
2018-04-10T01:05:14.722Z,37.08
2018-04-10T01:07:44.078Z,38.42
2018-04-10T01:10:13.319Z,41.05
2018-04-10T01:12:42.887Z,40.15
2018-04-10T01:15:12.665Z,38.10
2018-04-10T01:17:42.635Z,39.55
2018-04-10T01:20:11.870Z,39.03
2018-04-10T01:22:41.523Z,37.80
2018-04-10T01:25:10.765Z,39.10
2018-04-10T01:27:40.743Z,39.65
2018-04-10T01:30:10.443Z,39.55
2018-04-10T01:32:39.978Z,40.50
2018-04-10T01:35:09.989Z,39.85
2018-04-10T01:37:39.581Z,39.40
2018-04-10T01:40:08.973Z,40.83
2018-04-10T01:42:39.006Z,42.38
2018-04-10T01:45:08.334Z,41.22
2018-04-10T01:47:37.573Z,39.90
2018-04-10T01:50:07.127Z,44.00
2018-04-10T01:52:36.358Z,43.25
2018-04-10T01:55:06.127Z,41.75
2018-04-10T01:57:35.370Z,42.95
2018-04-10T02:00:04.726Z,42.90
2018-04-10T02:02:35.032Z,43.72
2018-04-10T02:05:04.366Z,44.50
2018-04-10T02:07:34.406Z,43.35
2018-04-10T02:13:03.253Z,43.30
2018-04-10T02:15:32.732Z,45.60
2018-04-10T02:18:02.948Z,44.85
2018-04-10T02:20:32.978Z,44.97
2018-04-10T02:23:02.573Z,46.30
2018-04-10T02:25:31.990Z,45.78
2018-04-10T02:28:01.738Z,46.47
2018-04-10T02:30:31.201Z,44.72
2018-04-10T02:33:01.174Z,46.70
2018-04-10T02:35:30.624Z,45.00
2018-04-10T02:37:59.901Z,45.42
2018-04-10T02:40:30.244Z,45.03
2018-04-10T02:42:59.526Z,44.38
2018-04-10T02:45:29.874Z,44.90
2018-04-10T02:47:59.165Z,44.50
2018-04-10T02:50:28.681Z,44.65
2018-04-10T02:52:57.957Z,44.88
2018-04-10T02:55:29.138Z,46.15
2018-04-10T02:57:58.844Z,43.15
2018-04-10T03:00:28.131Z,42.30
2018-04-10T03:02:58.661Z,44.92
2018-04-10T03:05:27.949Z,43.17
2018-04-10T03:07:58.502Z,43.47
2018-04-10T03:10:28.473Z,42.97
2018-04-10T03:12:57.890Z,42.45
2018-04-10T03:15:27.157Z,41.75
2018-04-10T03:17:56.725Z,46.03
2018-04-10T03:20:26.025Z,42.58
2018-04-10T03:22:55.523Z,42.67
2018-04-10T03:25:25.679Z,43.58
2018-04-10T03:27:55.153Z,41.80
2018-04-10T03:30:24.436Z,43.92
2018-04-10T03:32:54.787Z,43.53
2018-04-10T03:35:24.100Z,44.08
2018-04-10T03:37:53.594Z,42.97
2018-04-10T03:40:22.981Z,42.00
2018-04-10T03:42:52.401Z,43.22
2018-04-10T03:45:21.689Z,42.78
2018-04-10T03:47:52.023Z,41.88
2018-04-10T03:50:21.293Z,45.60
2018-04-10T03:52:51.653Z,43.35
2018-04-10T03:55:20.932Z,43.03
2018-04-10T03:57:51.276Z,44.70
2018-04-10T04:00:21.183Z,42.58
2018-04-10T04:02:50.453Z,46.00
2018-04-10T04:05:19.999Z,44.95
2018-04-10T04:07:49.277Z,43.85
2018-04-10T04:10:19.626Z,45.78
2018-04-10T04:12:49.070Z,45.80
2018-04-10T04:15:18.634Z,42.90
2018-04-10T04:17:47.913Z,45.83
2018-04-10T04:20:35.814Z,45.63
2018-04-10T04:23:05.189Z,43.50
2018-04-10T04:25:35.510Z,46.35
2018-04-10T04:28:04.825Z,47.10
2018-04-10T04:30:34.306Z,45.80
2018-04-10T04:33:05.185Z,43.80
2018-04-10T04:35:34.750Z,46.47
2018-04-10T04:38:04.033Z,43.80
2018-04-10T04:40:34.781Z,44.42
2018-04-10T04:43:04.193Z,45.80
2018-04-10T04:45:34.820Z,45.95
2018-04-10T04:48:04.094Z,46.95
2018-04-10T04:50:34.441Z,44.80
2018-04-10T04:53:04.107Z,44.97
2018-04-10T04:55:33.385Z,46.58
2018-04-10T04:58:03.088Z,44.25
2018-04-10T05:00:32.894Z,44.08
2018-04-10T05:03:02.529Z,46.15
2018-04-10T05:05:32.085Z,44.15
2018-04-10T05:08:02.316Z,45.28
2018-04-10T05:10:31.801Z,44.13
2018-04-10T05:13:02.154Z,44.30
2018-04-10T05:15:31.429Z,44.70
2018-04-10T05:18:01.581Z,44.63
2018-04-10T05:20:31.636Z,42.45
2018-04-10T05:23:01.156Z,42.67
2018-04-10T05:25:30.617Z,43.40
2018-04-10T05:28:00.624Z,42.53
2018-04-10T05:30:30.585Z,42.70
2018-04-10T05:33:00.052Z,42.38
2018-04-10T05:35:29.729Z,41.47
2018-04-10T05:38:00.154Z,41.58
2018-04-10T05:40:29.692Z,40.05
2018-04-10T05:42:59.294Z,37.90
2018-04-10T05:45:28.801Z,39.35
2018-04-10T05:47:58.966Z,38.55
2018-04-10T05:50:29.033Z,39.25
2018-04-10T05:52:58.317Z,38.80
2018-04-10T05:55:28.889Z,39.83
2018-04-10T05:57:58.161Z,37.92
2018-04-10T06:00:27.685Z,37.00
2018-04-10T06:02:56.965Z,38.13
2018-04-10T06:05:26.693Z,37.17
2018-04-10T06:07:55.973Z,35.92
2018-04-10T06:10:27.533Z,36.03
2018-04-10T06:12:56.809Z,36.70
2018-04-10T06:15:28.398Z,33.97
2018-04-10T06:17:57.728Z,37.25
2018-04-10T06:20:27.010Z,36.20
2018-04-10T06:22:56.396Z,35.00
2018-04-10T06:25:25.675Z,34.60
2018-04-10T06:27:55.110Z,36.55
2018-04-10T06:30:24.398Z,35.17
2018-04-10T06:32:56.171Z,34.90
2018-04-10T06:35:25.496Z,31.98
2018-04-10T06:37:54.981Z,33.90
2018-04-10T06:40:24.368Z,33.20
2018-04-10T06:42:53.986Z,33.30
2018-04-10T06:45:23.261Z,35.17
2018-04-10T06:47:54.230Z,32.22
2018-04-10T06:50:23.533Z,33.83
2018-04-10T06:52:53.044Z,33.85
2018-04-10T06:55:22.335Z,31.52
2018-04-10T06:57:52.261Z,33.00
2018-04-10T07:00:22.154Z,30.85
2018-04-10T07:02:52.370Z,33.08
2018-04-10T07:05:21.646Z,34.10
2018-04-10T07:07:51.173Z,33.20
2018-04-10T07:10:20.425Z,32.78
2018-04-10T07:12:50.297Z,30.65
2018-04-10T07:15:19.814Z,31.87
2018-04-10T07:17:49.093Z,35.15
2018-04-10T07:20:19.917Z,33.85
2018-04-10T07:22:49.469Z,33.63
2018-04-10T07:25:18.805Z,31.98
2018-04-10T07:27:48.118Z,35.15
2018-04-10T07:30:18.030Z,33.80
2018-04-10T07:32:47.270Z,35.80
2018-04-10T07:35:16.737Z,34.25
2018-04-10T07:37:45.977Z,33.28
2018-04-10T07:40:15.742Z,33.88
2018-04-10T07:42:45.143Z,35.80
2018-04-10T07:45:14.554Z,33.00
2018-04-10T07:47:43.801Z,33.63
2018-04-10T07:50:13.975Z,36.17
2018-04-10T07:52:43.210Z,33.40
2018-04-10T07:55:12.546Z,33.53
2018-04-10T07:57:41.807Z,32.88
2018-04-10T08:00:11.995Z,33.03
2018-04-10T08:02:41.234Z,34.97
2018-04-10T08:05:10.802Z,34.05
2018-04-10T08:07:40.038Z,34.00
2018-04-10T08:10:09.286Z,32.90
2018-04-10T08:12:39.111Z,31.52
2018-04-10T08:15:08.364Z,33.33
2018-04-10T08:17:37.719Z,30.55
2018-04-10T08:20:07.574Z,31.80
2018-04-10T08:22:37.551Z,31.08
2018-04-10T08:25:06.938Z,32.00
2018-04-10T08:27:36.358Z,31.30
2018-04-10T08:30:06.373Z,31.77
2018-04-10T08:32:35.774Z,31.92
2018-04-10T08:35:05.022Z,33.65
2018-04-10T08:37:34.999Z,32.75
2018-04-10T08:40:04.239Z,31.45
2018-04-10T08:42:33.798Z,30.80
2018-04-10T08:45:03.052Z,31.70
2018-04-10T08:47:32.398Z,34.30
2018-04-10T08:50:01.635Z,31.67
2018-04-10T08:52:31.014Z,36.55
2018-04-10T08:55:01.103Z,32.78
2018-04-10T08:57:30.625Z,31.65
2018-04-10T09:00:00.781Z,30.98
2018-04-10T09:02:31.066Z,30.75
2018-04-10T09:05:00.577Z,30.50
2018-04-10T09:07:29.889Z,28.48
2018-04-10T09:09:59.392Z,29.42
2018-04-10T09:12:28.718Z,29.58
2018-04-10T09:14:58.053Z,28.48
2018-04-10T09:17:27.287Z,28.25
2018-04-10T09:19:57.397Z,28.65
2018-04-10T09:22:26.660Z,30.45
2018-04-10T09:24:56.215Z,28.50
2018-04-10T09:27:26.590Z,28.25
2018-04-10T09:29:56.454Z,28.75
2018-04-10T09:32:26.490Z,29.12
2018-04-10T09:34:55.870Z,30.58
2018-04-10T09:37:25.139Z,29.60
2018-04-10T09:39:54.575Z,28.27
2018-04-10T09:42:23.981Z,30.23
2018-04-10T09:44:53.381Z,31.50
2018-04-10T09:47:23.040Z,27.92
2018-04-10T09:49:53.230Z,28.00
2018-04-10T09:52:23.548Z,29.90
2018-04-10T09:54:53.571Z,29.90
2018-04-10T09:57:22.938Z,29.80
2018-04-10T09:59:52.178Z,31.27
2018-04-10T10:02:21.567Z,29.63
2018-04-10T10:04:50.904Z,30.23
2018-04-10T10:07:20.377Z,31.08
2018-04-10T10:09:50.423Z,34.25
2018-04-10T10:12:19.803Z,36.10
2018-04-10T10:14:49.815Z,33.25
2018-04-10T10:17:19.182Z,32.95
2018-04-10T10:19:48.428Z,38.10
2018-04-10T10:22:17.828Z,37.75
2018-04-10T10:24:47.841Z,34.00
2018-04-10T10:27:17.851Z,36.47
2018-04-10T10:29:47.100Z,35.90
2018-04-10T10:32:16.468Z,33.80
2018-04-10T10:34:47.099Z,33.28
2018-04-10T10:37:16.488Z,34.47
2018-04-10T10:39:45.732Z,34.67
2018-04-10T10:42:15.091Z,33.20
2018-04-10T10:44:45.247Z,35.63
2018-04-10T10:47:15.126Z,32.63
2018-04-10T10:49:44.778Z,31.67
2018-04-10T10:52:14.247Z,31.67
2018-04-10T10:54:43.490Z,33.75
2018-04-10T10:57:12.730Z,30.45
2018-04-10T10:59:42.678Z,32.28
2018-04-10T11:02:13.614Z,32.13
2018-04-10T11:04:43.928Z,29.92
2018-04-10T11:07:13.755Z,30.70
2018-04-10T11:09:43.551Z,29.23
2018-04-10T11:12:12.786Z,29.80
2018-04-10T11:14:42.147Z,29.08
2018-04-10T11:17:11.782Z,30.20
2018-04-10T11:19:41.159Z,28.33
2018-04-10T11:22:10.408Z,29.75
2018-04-10T11:24:39.972Z,28.38
2018-04-10T11:27:09.486Z,29.35
2018-04-10T11:29:39.806Z,28.48
2018-04-10T11:32:09.805Z,28.87
2018-04-10T11:34:39.217Z,27.30
2018-04-10T11:37:08.467Z,27.95
2018-04-10T11:39:37.828Z,28.77
2018-04-10T11:42:07.226Z,27.05
2018-04-10T11:44:36.634Z,27.55
2018-04-10T11:47:05.874Z,25.40
2018-04-10T11:49:35.440Z,26.70
2018-04-10T11:52:04.684Z,25.80
2018-04-10T11:54:33.922Z,25.67
2018-04-10T11:57:03.275Z,26.08
2018-04-10T11:59:32.515Z,26.17
2018-04-10T12:02:01.984Z,26.50
2018-04-10T12:04:31.183Z,25.80
2018-04-10T12:07:00.550Z,25.80
2018-04-10T12:09:29.811Z,25.90
2018-04-10T12:11:59.355Z,27.13
2018-04-10T12:14:28.611Z,28.20
2018-04-10T12:16:58.154Z,25.48
2018-04-10T12:19:27.609Z,26.08
2018-04-10T12:21:56.962Z,26.70
2018-04-10T12:24:26.205Z,25.35
2018-04-10T12:26:55.990Z,25.58
2018-04-10T12:29:25.995Z,25.15
2018-04-10T12:31:55.442Z,25.10
2018-04-10T12:34:24.691Z,25.50
2018-04-10T12:36:54.820Z,25.00
2018-04-10T12:39:24.794Z,23.55
2018-04-10T12:41:55.054Z,26.65
2018-04-10T12:44:24.294Z,26.17
2018-04-10T12:46:53.866Z,28.20
2018-04-10T12:49:23.958Z,24.90
2018-04-10T12:51:53.486Z,23.52
2018-04-10T12:54:22.989Z,23.85
2018-04-10T12:56:52.226Z,24.50
2018-04-10T12:59:21.592Z,23.42
2018-04-10T13:01:52.865Z,23.95
2018-04-10T13:04:22.194Z,23.00
2018-04-10T13:06:51.442Z,24.10
2018-04-10T13:09:20.887Z,24.00
2018-04-10T13:11:50.140Z,22.75
2018-04-10T13:14:20.310Z,22.70
2018-04-10T13:16:49.630Z,23.52
2018-04-10T13:19:19.482Z,24.23
2018-04-10T13:21:48.718Z,21.02
2018-04-10T13:24:18.698Z,21.92
2018-04-10T13:26:48.178Z,21.67
2018-04-10T13:29:17.709Z,23.35
2018-04-10T13:31:46.955Z,22.10
2018-04-10T13:34:16.318Z,20.92
2018-04-10T13:36:45.925Z,21.40
2018-04-10T13:39:16.143Z,22.60
2018-04-10T13:41:45.610Z,21.45
2018-04-10T13:44:15.680Z,22.80
2018-04-10T13:46:45.690Z,22.58
2018-04-10T13:49:16.314Z,22.13
2018-04-10T13:51:45.796Z,21.12
2018-04-10T13:54:15.062Z,21.70
2018-04-10T13:56:44.438Z,21.35
2018-04-10T13:59:14.567Z,20.48
2018-04-10T14:01:44.054Z,20.40
2018-04-10T14:04:13.293Z,22.73
2018-04-10T14:06:43.288Z,20.70
2018-04-10T14:09:13.283Z,20.67
2018-04-10T14:11:42.636Z,19.20
2018-04-10T14:14:11.913Z,22.15
2018-04-10T14:16:41.290Z,20.73
2018-04-10T14:19:10.530Z,20.17
2018-04-10T14:21:40.100Z,18.62
2018-04-10T14:24:09.334Z,19.75
2018-04-10T14:26:38.742Z,19.60
2018-04-10T14:29:08.129Z,19.60
2018-04-10T14:31:37.508Z,20.45
2018-04-10T14:34:06.750Z,20.17
2018-04-10T14:36:36.741Z,19.73
2018-04-10T14:39:06.759Z,20.77
2018-04-10T14:41:36.137Z,21.00
2018-04-10T14:44:05.418Z,20.05
2018-04-10T14:46:35.358Z,20.77
2018-04-10T14:49:04.602Z,20.75
2018-04-10T14:51:33.962Z,19.60
2018-04-10T14:54:03.207Z,19.30
2018-04-10T14:56:32.778Z,18.85
2018-04-10T14:59:03.526Z,19.77
2018-04-10T15:01:33.838Z,17.87
2018-04-10T15:04:04.238Z,17.70
2018-04-10T15:06:34.076Z,17.77
2018-04-10T15:09:03.315Z,18.33
2018-04-10T15:11:32.554Z,19.30
2018-04-10T15:14:01.970Z,19.17
2018-04-10T15:16:31.210Z,18.73
2018-04-10T15:19:00.786Z,20.45
2018-04-10T15:21:31.113Z,19.65
2018-04-10T15:24:01.435Z,20.92
2018-04-10T15:26:30.678Z,18.10
2018-04-10T15:29:00.047Z,19.87
2018-04-10T15:31:30.055Z,16.33
2018-04-10T15:33:59.452Z,18.95
2018-04-10T15:36:29.005Z,19.90
2018-04-10T15:38:58.874Z,17.73
2018-04-10T15:41:29.021Z,18.95
2018-04-10T15:44:00.149Z,20.23
2018-04-10T15:46:30.158Z,18.45
2018-04-10T15:49:00.177Z,17.40
2018-04-10T15:51:29.490Z,17.83
2018-04-10T15:53:59.803Z,17.15
2018-04-10T15:56:30.658Z,16.67
2018-04-10T15:59:00.246Z,17.70
2018-04-10T16:01:29.485Z,17.20
2018-04-10T16:03:59.050Z,16.95
2018-04-10T16:06:28.600Z,16.33
2018-04-10T16:08:58.064Z,16.77
2018-04-10T16:11:27.306Z,17.83
2018-04-10T16:13:56.551Z,17.33
2018-04-10T16:16:27.013Z,17.17
2018-04-10T16:18:56.425Z,16.45
2018-04-10T16:21:25.794Z,16.70
2018-04-10T16:23:55.078Z,17.90
2018-04-10T16:26:25.830Z,15.90
2018-04-10T16:28:55.859Z,16.65
2018-04-10T16:31:25.859Z,15.30
2018-04-10T16:33:55.681Z,16.33
2018-04-10T16:36:25.078Z,15.88
2018-04-10T16:38:54.318Z,15.65
2018-04-10T16:41:24.525Z,18.05
2018-04-10T16:43:54.518Z,14.82
2018-04-10T16:46:24.767Z,14.77
2018-04-10T16:48:54.061Z,16.20
2018-04-10T16:51:23.451Z,16.30
2018-04-10T16:53:53.466Z,16.48
2018-04-10T16:56:23.101Z,16.08
2018-04-10T16:58:53.909Z,18.40
2018-04-10T17:01:23.314Z,16.90
2018-04-10T17:03:52.970Z,16.87
2018-04-10T17:06:23.551Z,17.77
2018-04-10T17:08:52.794Z,16.77
2018-04-10T17:11:23.078Z,16.95
2018-04-10T17:13:52.311Z,17.50
2018-04-10T17:16:22.022Z,15.52
2018-04-10T17:18:51.271Z,17.80
2018-04-10T17:21:20.795Z,22.13
2018-04-10T17:23:50.146Z,17.30
2018-04-10T17:26:19.647Z,15.57
2018-04-10T17:28:48.885Z,18.62
2018-04-10T17:31:18.850Z,17.05
2018-04-10T17:33:48.375Z,15.05
2018-04-10T17:36:17.755Z,17.42
2018-04-10T17:38:47.892Z,16.10
2018-04-10T17:41:18.197Z,17.12
2018-04-10T17:43:47.433Z,18.92
2018-04-10T17:46:16.657Z,17.40
2018-04-10T17:48:46.224Z,16.98
2018-04-10T17:51:15.438Z,17.15
2018-04-10T17:53:44.893Z,17.62
2018-04-10T17:56:14.117Z,19.10
2018-04-10T17:58:43.618Z,16.30
2018-04-10T18:01:12.929Z,16.98
2018-04-10T18:03:42.797Z,17.05
2018-04-10T18:06:12.020Z,17.02
2018-04-10T18:08:42.626Z,18.40
2018-04-10T18:11:12.066Z,18.35
2018-04-10T18:13:41.418Z,18.08
2018-04-10T18:16:10.641Z,18.30
2018-04-10T18:18:40.037Z,19.00
2018-04-10T18:21:09.312Z,18.42
2018-04-10T18:23:39.047Z,17.98
2018-04-10T18:26:08.286Z,20.27
2018-04-10T18:28:37.651Z,17.85
2018-04-10T18:31:07.358Z,19.77
2018-04-10T18:33:37.678Z,19.90
2018-04-10T18:36:06.941Z,20.37
2018-04-10T18:38:36.903Z,20.85
2018-04-10T18:41:07.258Z,22.60
2018-04-10T18:43:37.553Z,21.87
2018-04-10T18:46:06.782Z,21.83
2018-04-10T18:48:36.169Z,19.42
2018-04-10T18:51:06.982Z,21.10
2018-04-10T18:53:36.911Z,20.88
2018-04-10T18:56:06.320Z,20.95
2018-04-10T18:58:36.164Z,24.02
2018-04-10T19:01:06.314Z,24.05
2018-04-10T19:03:35.546Z,21.40
2018-04-10T19:06:06.789Z,21.40
2018-04-10T19:08:36.447Z,22.45
2018-04-10T19:11:06.214Z,21.98
2018-04-10T19:13:35.438Z,20.45
2018-04-10T19:16:06.353Z,20.65
2018-04-10T19:18:35.572Z,23.38
2018-04-10T19:21:05.488Z,22.02
2018-04-10T19:23:34.701Z,21.12
2018-04-10T19:26:04.374Z,21.20
2018-04-10T19:28:33.600Z,21.12
2018-04-10T19:31:02.973Z,19.83
2018-04-10T19:33:33.029Z,20.05
2018-04-10T19:36:02.404Z,19.10
2018-04-10T19:38:32.201Z,20.05
2018-04-10T19:41:01.718Z,19.50
2018-04-10T19:43:31.002Z,20.25
2018-04-10T19:46:01.036Z,23.95
2018-04-10T19:48:31.362Z,20.50
2018-04-10T19:51:00.966Z,21.27
2018-04-10T19:53:30.195Z,21.33
2018-04-10T19:56:01.112Z,24.70
2018-04-10T19:58:30.334Z,22.90
2018-04-10T20:00:59.561Z,22.55
2018-04-10T20:03:29.032Z,20.90
2018-04-10T20:05:58.430Z,23.73
2018-04-10T20:08:28.674Z,20.42
2018-04-10T20:10:57.858Z,26.08
2018-04-10T20:13:27.602Z,19.35
2018-04-10T20:15:56.813Z,20.52
2018-04-10T20:18:26.245Z,21.30
2018-04-10T20:20:55.471Z,22.40
2018-04-10T20:23:24.858Z,20.60
2018-04-10T20:25:54.078Z,19.05
2018-04-10T20:28:23.638Z,20.85
2018-04-10T20:30:53.696Z,21.20
2018-04-10T20:33:23.442Z,20.52
2018-04-10T20:35:53.280Z,21.25
2018-04-10T20:38:22.701Z,22.10
2018-04-10T20:40:53.857Z,20.83
2018-04-10T20:43:23.350Z,19.30
2018-04-10T20:45:53.734Z,20.20
2018-04-10T20:48:23.182Z,20.80
2018-04-10T20:50:52.509Z,22.02
2018-04-10T20:53:22.699Z,20.20
2018-04-10T20:55:52.532Z,20.40
2018-04-10T20:58:22.742Z,20.10
2018-04-10T21:00:51.968Z,20.95
2018-04-10T21:03:21.406Z,19.90
2018-04-10T21:05:50.845Z,21.73
2018-04-10T21:08:20.505Z,20.08
2018-04-10T21:10:50.474Z,22.87
2018-04-10T21:13:19.702Z,20.33
2018-04-10T21:15:49.077Z,19.25
2018-04-10T21:18:18.309Z,17.90
2018-04-10T21:20:48.124Z,17.73
2018-04-10T21:23:19.337Z,15.68
2018-04-10T21:25:48.796Z,23.02
2018-04-10T21:28:17.968Z,17.20
2018-04-10T21:30:47.314Z,17.17
2018-04-10T21:33:16.542Z,18.83
2018-04-10T21:35:45.942Z,17.17
2018-04-10T21:38:15.242Z,16.58
2018-04-10T21:40:44.750Z,16.80
2018-04-10T21:43:19.741Z,15.35
2018-04-10T21:45:49.905Z,19.25
2018-04-10T21:48:19.127Z,17.33
2018-04-10T21:50:49.137Z,16.67
2018-04-10T21:53:18.358Z,15.70
2018-04-10T21:55:47.721Z,15.68
2018-04-10T21:58:17.051Z,14.90
2018-04-10T22:00:46.255Z,17.17
2018-04-10T22:03:16.033Z,15.55
2018-04-10T22:05:45.260Z,13.68
2018-04-10T22:08:14.664Z,17.20
2018-04-10T22:10:43.861Z,15.55
2018-04-10T22:13:13.241Z,17.55
2018-04-10T22:15:42.463Z,14.15
2018-04-10T22:18:12.458Z,13.50
2018-04-10T22:20:43.099Z,13.57
2018-04-10T22:23:12.494Z,14.52
2018-04-10T22:25:42.510Z,14.20
2018-04-10T22:28:12.650Z,12.70
2018-04-10T22:30:41.877Z,14.10
2018-04-10T22:33:11.704Z,12.73
2018-04-10T22:35:41.847Z,14.98
2018-04-10T22:38:11.955Z,13.65
2018-04-10T22:40:41.288Z,12.25
2018-04-10T22:43:11.399Z,12.70
2018-04-10T22:45:41.700Z,12.30
2018-04-10T22:48:11.687Z,13.38
2018-04-10T22:50:41.998Z,13.10
2018-04-10T22:53:12.338Z,13.43
2018-04-10T22:55:42.891Z,13.65
2018-04-10T22:58:12.839Z,14.07
2018-04-10T23:00:47.550Z,11.68
2018-04-10T23:03:16.767Z,15.77
2018-04-10T23:05:46.156Z,12.02
2018-04-10T23:08:15.390Z,12.02
2018-04-10T23:10:44.762Z,11.27
2018-04-10T23:13:13.990Z,11.02
2018-04-10T23:15:43.370Z,11.07
2018-04-10T23:18:12.804Z,12.63
2018-04-10T23:20:42.187Z,13.45
2018-04-10T23:23:11.410Z,10.30
2018-04-10T23:25:40.786Z,10.13
2018-04-10T23:28:10.128Z,10.88
2018-04-10T23:30:41.642Z,12.18
2018-04-10T23:33:10.871Z,10.27
2018-04-10T23:35:40.095Z,11.55
2018-04-10T23:38:09.555Z,10.20
2018-04-10T23:40:39.342Z,11.05
2018-04-10T23:43:08.770Z,10.65
2018-04-10T23:45:37.999Z,11.70
2018-04-10T23:48:08.809Z,9.95
2018-04-10T23:50:38.034Z,11.02
2018-04-10T23:53:07.415Z,10.73
2018-04-10T23:55:36.637Z,10.50
2018-04-10T23:58:06.422Z,10.40
